createdAt,value
2018-03-08T00:00:28.963Z,991.50
2018-03-08T00:01:28.956Z,991.52
2018-03-08T00:02:28.952Z,991.59
2018-03-08T00:03:28.935Z,991.55
2018-03-08T00:04:28.912Z,991.59
2018-03-08T00:05:28.911Z,991.58
2018-03-08T00:06:28.900Z,991.57
2018-03-08T00:07:28.890Z,991.56
2018-03-08T00:08:28.868Z,991.55
2018-03-08T00:09:28.870Z,991.57
2018-03-08T00:10:28.859Z,991.58
2018-03-08T00:11:28.849Z,991.61
2018-03-08T00:12:28.827Z,991.56
2018-03-08T00:13:28.830Z,991.59
2018-03-08T00:14:28.809Z,991.58
2018-03-08T00:15:28.814Z,991.64
2018-03-08T00:16:28.804Z,991.68
2018-03-08T00:17:28.790Z,991.63
2018-03-08T00:18:28.769Z,991.58
2018-03-08T00:19:28.763Z,991.67
2018-03-08T00:20:28.761Z,991.66
2018-03-08T00:21:28.750Z,991.64
2018-03-08T00:22:28.743Z,991.71
2018-03-08T00:23:28.720Z,991.63
2018-03-08T00:24:28.709Z,991.68
2018-03-08T00:25:28.700Z,991.68
2018-03-08T00:26:28.685Z,991.73
2018-03-08T00:27:28.691Z,991.72
2018-03-08T00:28:28.678Z,991.70
2018-03-08T00:29:28.660Z,991.77
2018-03-08T00:30:28.656Z,991.75
2018-03-08T00:31:28.636Z,991.77
2018-03-08T00:32:28.639Z,991.76
2018-03-08T00:33:28.634Z,991.76
2018-03-08T00:34:28.615Z,991.82
2018-03-08T00:35:28.615Z,991.78
2018-03-08T00:36:28.584Z,991.90
2018-03-08T00:37:28.573Z,991.82
2018-03-08T00:38:28.576Z,991.83
2018-03-08T00:39:28.552Z,991.85
2018-03-08T00:40:28.556Z,991.82
2018-03-08T00:41:28.546Z,991.90
2018-03-08T00:42:28.533Z,991.93
2018-03-08T00:43:28.515Z,991.90
2018-03-08T00:44:28.504Z,991.94
2018-03-08T00:45:28.520Z,991.91
2018-03-08T00:46:28.499Z,991.90
2018-03-08T00:47:28.490Z,991.98
2018-03-08T00:48:28.472Z,991.95
2018-03-08T00:49:28.464Z,991.99
2018-03-08T00:50:28.452Z,992.00
2018-03-08T00:51:28.439Z,991.97
2018-03-08T00:52:28.432Z,991.94
2018-03-08T00:53:28.412Z,992.03
2018-03-08T00:54:28.415Z,991.99
2018-03-08T00:55:28.392Z,992.03
2018-03-08T00:56:28.394Z,992.01
2018-03-08T00:57:28.402Z,992.00
2018-03-08T00:58:28.360Z,991.98
2018-03-08T00:59:28.360Z,992.00
2018-03-08T01:00:28.354Z,992.02
2018-03-08T01:01:28.341Z,992.06
2018-03-08T01:02:28.333Z,992.06
2018-03-08T01:03:28.323Z,992.05
2018-03-08T01:04:28.298Z,992.02
2018-03-08T01:05:28.294Z,992.09
2018-03-08T01:06:28.276Z,992.07
2018-03-08T01:07:28.285Z,992.04
2018-03-08T01:08:28.267Z,992.08
2018-03-08T01:09:28.259Z,992.13
2018-03-08T01:10:28.235Z,992.09
2018-03-08T01:11:28.248Z,992.11
2018-03-08T01:12:28.237Z,992.10
2018-03-08T01:13:28.243Z,992.11
2018-03-08T01:14:28.208Z,992.08
2018-03-08T01:15:28.195Z,992.17
2018-03-08T01:16:28.186Z,992.10
2018-03-08T01:17:28.173Z,992.17
2018-03-08T01:18:28.175Z,992.14
2018-03-08T01:19:28.144Z,992.16
2018-03-08T01:20:28.144Z,992.14
2018-03-08T01:21:28.122Z,992.21
2018-03-08T01:22:28.110Z,992.15
2018-03-08T01:23:28.140Z,992.21
2018-03-08T01:24:28.122Z,992.19
2018-03-08T01:25:28.083Z,992.17
2018-03-08T01:26:28.081Z,992.18
2018-03-08T01:27:28.072Z,992.21
2018-03-08T01:28:28.056Z,992.25
2018-03-08T01:29:28.052Z,992.20
2018-03-08T01:30:28.030Z,992.22
2018-03-08T01:31:28.032Z,992.25
2018-03-08T01:32:28.015Z,992.27
2018-03-08T01:33:28.010Z,992.34
2018-03-08T01:34:27.998Z,992.32
2018-03-08T01:35:27.983Z,992.32
2018-03-08T01:36:27.982Z,992.27
2018-03-08T01:37:27.960Z,992.36
2018-03-08T01:38:27.963Z,992.35
2018-03-08T01:39:27.949Z,992.34
2018-03-08T01:40:27.927Z,992.37
2018-03-08T01:41:27.917Z,992.35
2018-03-08T01:42:27.903Z,992.39
2018-03-08T01:43:27.907Z,992.37
2018-03-08T01:44:27.896Z,992.40
2018-03-08T01:45:27.885Z,992.40
2018-03-08T01:46:27.876Z,992.39
2018-03-08T01:47:27.877Z,992.44
2018-03-08T01:48:27.854Z,992.36
2018-03-08T01:49:27.842Z,992.49
2018-03-08T01:50:27.833Z,992.54
2018-03-08T01:51:27.817Z,992.56
2018-03-08T01:52:27.811Z,992.56
2018-03-08T01:53:27.788Z,992.55
2018-03-08T01:54:27.778Z,992.59
2018-03-08T01:55:27.770Z,992.55
2018-03-08T01:56:27.771Z,992.61
2018-03-08T01:57:27.756Z,992.53
2018-03-08T01:58:27.738Z,992.60
2018-03-08T01:59:27.739Z,992.57
2018-03-08T02:00:27.730Z,992.62
2018-03-08T02:01:27.704Z,992.54
2018-03-08T02:02:27.710Z,992.60
2018-03-08T02:03:27.726Z,992.59
2018-03-08T02:04:27.686Z,992.63
2018-03-08T02:05:27.670Z,992.68
2018-03-08T02:06:27.655Z,992.61
2018-03-08T02:07:27.646Z,992.65
2018-03-08T02:08:27.649Z,992.69
2018-03-08T02:09:27.627Z,992.66
2018-03-08T02:10:27.627Z,992.63
2018-03-08T02:11:27.602Z,992.69
2018-03-08T02:12:27.602Z,992.72
2018-03-08T02:13:27.584Z,992.72
2018-03-08T02:14:27.588Z,992.71
2018-03-08T02:15:27.560Z,992.70
2018-03-08T02:16:27.563Z,992.74
2018-03-08T02:17:27.554Z,992.73
2018-03-08T02:18:27.526Z,992.74
2018-03-08T02:19:27.528Z,992.74
2018-03-08T02:20:27.510Z,992.74
2018-03-08T02:21:27.500Z,992.81
2018-03-08T02:22:27.495Z,992.79
2018-03-08T02:23:27.478Z,992.82
2018-03-08T02:24:27.476Z,992.83
2018-03-08T02:25:27.467Z,992.74
2018-03-08T02:26:27.446Z,992.81
2018-03-08T02:27:27.432Z,992.83
2018-03-08T02:28:27.426Z,992.88
2018-03-08T02:29:27.415Z,992.86
2018-03-08T02:30:27.402Z,992.88
2018-03-08T02:31:27.404Z,992.87
2018-03-08T02:32:27.395Z,992.90
2018-03-08T02:33:27.383Z,992.87
2018-03-08T02:34:27.373Z,992.86
2018-03-08T02:35:27.350Z,992.88
2018-03-08T02:36:27.354Z,992.90
2018-03-08T02:37:27.333Z,992.94
2018-03-08T02:38:27.339Z,992.90
2018-03-08T02:39:27.309Z,992.94
2018-03-08T02:40:27.311Z,992.92
2018-03-08T02:41:27.292Z,992.99
2018-03-08T02:42:27.287Z,992.88
2018-03-08T02:43:27.285Z,992.95
2018-03-08T02:44:27.256Z,992.97
2018-03-08T02:45:27.263Z,992.95
2018-03-08T02:46:27.271Z,992.96
2018-03-08T02:47:27.249Z,992.95
2018-03-08T02:48:27.255Z,992.97
2018-03-08T02:49:27.217Z,992.95
2018-03-08T02:50:27.195Z,992.95
2018-03-08T02:51:27.184Z,992.97
2018-03-08T02:52:27.187Z,992.98
2018-03-08T02:53:27.176Z,992.99
2018-03-08T02:54:27.181Z,993.00
2018-03-08T02:55:27.153Z,993.02
2018-03-08T02:56:27.133Z,993.00
2018-03-08T02:57:27.135Z,993.03
2018-03-08T02:58:27.113Z,992.97
2018-03-08T02:59:27.106Z,993.00
2018-03-08T03:00:27.104Z,993.00
2018-03-08T03:01:27.094Z,993.01
2018-03-08T03:02:27.070Z,993.04
2018-03-08T03:03:27.067Z,993.07
2018-03-08T03:04:27.052Z,993.03
2018-03-08T03:05:27.042Z,993.06
2018-03-08T03:06:27.054Z,993.05
2018-03-08T03:07:27.028Z,993.08
2018-03-08T03:08:27.021Z,993.08
2018-03-08T03:09:26.998Z,993.05
2018-03-08T03:10:26.989Z,993.08
2018-03-08T03:11:26.997Z,993.12
2018-03-08T03:12:26.968Z,993.13
2018-03-08T03:13:26.962Z,993.15
2018-03-08T03:14:26.963Z,993.15
2018-03-08T03:15:26.964Z,993.14
2018-03-08T03:16:26.930Z,993.16
2018-03-08T03:17:26.929Z,993.14
2018-03-08T03:20:28.644Z,993.20
2018-03-08T03:21:00.033Z,993.19
2018-03-08T03:22:00.023Z,993.17
2018-03-08T03:23:00.012Z,993.19
2018-03-08T03:24:00.004Z,993.19
2018-03-08T03:24:59.986Z,993.20
2018-03-08T03:25:59.980Z,993.24
2018-03-08T03:26:59.973Z,993.22
2018-03-08T03:27:59.954Z,993.26
2018-03-08T03:28:59.946Z,993.25
2018-03-08T03:29:59.933Z,993.21
2018-03-08T03:30:59.933Z,993.24
2018-03-08T03:31:59.919Z,993.23
2018-03-08T03:32:59.918Z,993.26
2018-03-08T03:33:59.899Z,993.23
2018-03-08T03:34:59.881Z,993.25
2018-03-08T03:35:59.896Z,993.25
2018-03-08T03:36:59.867Z,993.21
2018-03-08T03:37:59.856Z,993.18
2018-03-08T03:38:59.848Z,993.21
2018-03-08T03:39:59.831Z,993.22
2018-03-08T03:40:59.824Z,993.23
2018-03-08T03:41:59.831Z,993.29
2018-03-08T03:42:59.797Z,993.27
2018-03-08T03:43:59.798Z,993.27
2018-03-08T03:44:59.786Z,993.31
2018-03-08T03:45:59.768Z,993.33
2018-03-08T03:46:59.759Z,993.27
2018-03-08T03:47:59.756Z,993.28
2018-03-08T03:48:59.741Z,993.30
2018-03-08T03:49:59.734Z,993.31
2018-03-08T03:50:59.718Z,993.29
2018-03-08T03:51:59.709Z,993.25
2018-03-08T03:52:59.702Z,993.28
2018-03-08T03:53:59.689Z,993.27
2018-03-08T03:54:59.676Z,993.29
2018-03-08T03:55:59.674Z,993.32
2018-03-08T03:56:59.656Z,993.32
2018-03-08T03:57:59.645Z,993.32
2018-03-08T03:58:59.635Z,993.35
2018-03-08T03:59:59.621Z,993.34
2018-03-08T04:00:59.615Z,993.33
2018-03-08T04:01:59.604Z,993.27
2018-03-08T04:02:59.594Z,993.32
2018-03-08T04:03:59.584Z,993.34
2018-03-08T04:04:59.571Z,993.37
2018-03-08T04:05:59.560Z,993.33
2018-03-08T04:06:59.556Z,993.36
2018-03-08T04:07:59.547Z,993.42
2018-03-08T04:08:59.562Z,993.42
2018-03-08T04:09:59.520Z,993.44
2018-03-08T04:10:59.510Z,993.48
2018-03-08T04:11:59.513Z,993.50
2018-03-08T04:12:59.491Z,993.47
2018-03-08T04:13:59.479Z,993.46
2018-03-08T04:14:59.472Z,993.52
2018-03-08T04:15:59.458Z,993.44
2018-03-08T04:16:59.448Z,993.51
2018-03-08T04:17:59.436Z,993.49
2018-03-08T04:18:59.428Z,993.49
2018-03-08T04:19:59.417Z,993.50
2018-03-08T04:20:59.416Z,993.51
2018-03-08T04:21:59.400Z,993.51
2018-03-08T04:22:59.391Z,993.39
2018-03-08T04:23:59.386Z,993.50
2018-03-08T04:24:59.371Z,993.53
2018-03-08T04:25:59.363Z,993.54
2018-03-08T04:26:59.348Z,993.50
2018-03-08T04:27:59.335Z,993.50
2018-03-08T04:28:59.324Z,993.40
2018-03-08T04:29:59.318Z,993.51
2018-03-08T04:30:59.299Z,993.54
2018-03-08T04:31:59.297Z,993.58
2018-03-08T04:32:59.288Z,993.57
2018-03-08T04:33:59.276Z,993.64
2018-03-08T04:34:59.265Z,993.63
2018-03-08T04:35:59.253Z,993.61
2018-03-08T04:36:59.243Z,993.63
2018-03-08T04:37:59.234Z,993.64
2018-03-08T04:38:59.225Z,993.73
2018-03-08T04:39:59.217Z,993.68
2018-03-08T04:40:59.221Z,993.67
2018-03-08T04:41:59.189Z,993.65
2018-03-08T04:42:59.226Z,993.62
2018-03-08T04:43:59.173Z,993.66
2018-03-08T04:44:59.161Z,993.62
2018-03-08T04:45:59.144Z,993.57
2018-03-08T04:46:59.137Z,993.64
2018-03-08T04:47:59.127Z,993.66
2018-03-08T04:48:59.117Z,993.72
2018-03-08T04:49:59.108Z,993.70
2018-03-08T04:50:59.094Z,993.74
2018-03-08T04:51:59.085Z,993.77
2018-03-08T04:52:59.082Z,993.72
2018-03-08T04:53:59.066Z,993.73
2018-03-08T04:54:59.056Z,993.76
2018-03-08T04:55:59.050Z,993.73
2018-03-08T04:56:59.032Z,993.71
2018-03-08T04:57:59.023Z,993.66
2018-03-08T04:58:59.015Z,993.73
2018-03-08T04:59:59.022Z,993.76
2018-03-08T05:00:58.992Z,993.80
2018-03-08T05:01:58.986Z,993.79
2018-03-08T05:02:58.992Z,993.84
2018-03-08T05:03:58.964Z,993.84
2018-03-08T05:04:58.951Z,993.90
2018-03-08T05:05:58.938Z,993.92
2018-03-08T05:06:58.925Z,993.94
2018-03-08T05:07:58.921Z,993.98
2018-03-08T05:08:58.908Z,993.93
2018-03-08T05:09:58.898Z,993.94
2018-03-08T05:10:58.884Z,993.92
2018-03-08T05:11:58.875Z,993.93
2018-03-08T05:12:58.868Z,993.94
2018-03-08T05:13:58.851Z,993.91
2018-03-08T05:14:58.846Z,993.80
2018-03-08T05:15:58.834Z,993.89
2018-03-08T05:16:58.823Z,993.93
2018-03-08T05:17:58.825Z,993.93
2018-03-08T05:18:58.802Z,993.89
2018-03-08T05:19:58.792Z,993.91
2018-03-08T05:20:58.781Z,993.93
2018-03-08T05:21:58.769Z,993.93
2018-03-08T05:22:58.762Z,993.91
2018-03-08T05:23:58.757Z,993.89
2018-03-08T05:24:58.759Z,993.88
2018-03-08T05:25:58.747Z,993.83
2018-03-08T05:26:58.720Z,993.89
2018-03-08T05:27:58.703Z,993.90
2018-03-08T05:28:58.701Z,993.96
2018-03-08T05:29:58.692Z,993.94
2018-03-08T05:30:58.677Z,993.90
2018-03-08T05:31:58.686Z,993.86
2018-03-08T05:32:58.658Z,993.89
2018-03-08T05:33:58.642Z,993.94
2018-03-08T05:34:58.636Z,993.95
2018-03-08T05:35:58.624Z,993.94
2018-03-08T05:36:58.616Z,993.95
2018-03-08T05:37:58.607Z,993.94
2018-03-08T05:38:58.601Z,993.97
2018-03-08T05:39:58.582Z,993.98
2018-03-08T05:40:58.583Z,993.90
2018-03-08T05:41:58.564Z,993.97
2018-03-08T05:42:58.554Z,993.91
2018-03-08T05:43:58.543Z,993.94
2018-03-08T05:44:58.534Z,993.98
2018-03-08T05:45:58.522Z,994.01
2018-03-08T05:46:58.510Z,993.98
2018-03-08T05:47:58.497Z,994.01
2018-03-08T05:48:58.491Z,993.99
2018-03-08T05:49:58.522Z,994.05
2018-03-08T05:50:58.469Z,994.05
2018-03-08T05:51:58.455Z,994.04
2018-03-08T05:52:58.448Z,994.07
2018-03-08T05:53:58.444Z,994.06
2018-03-08T05:54:58.431Z,994.07
2018-03-08T05:55:58.428Z,994.14
2018-03-08T05:56:58.407Z,994.15
2018-03-08T05:57:58.391Z,994.16
2018-03-08T05:58:58.386Z,994.15
2018-03-08T05:59:58.387Z,994.11
2018-03-08T06:00:58.365Z,994.16
2018-03-08T06:01:58.354Z,994.23
2018-03-08T06:02:58.341Z,994.22
2018-03-08T06:03:58.332Z,994.23
2018-03-08T06:04:58.338Z,994.28
2018-03-08T06:05:58.326Z,994.33
2018-03-08T06:06:58.302Z,994.34
2018-03-08T06:07:58.302Z,994.36
2018-03-08T06:08:58.282Z,994.43
2018-03-08T06:09:58.272Z,994.43
2018-03-08T06:10:58.270Z,994.38
2018-03-08T06:11:58.263Z,994.37
2018-03-08T06:12:58.252Z,994.40
2018-03-08T06:13:58.229Z,994.41
2018-03-08T06:14:58.214Z,994.43
2018-03-08T06:15:58.208Z,994.43
2018-03-08T06:16:58.195Z,994.42
2018-03-08T06:17:58.191Z,994.46
2018-03-08T06:18:58.176Z,994.48
2018-03-08T06:19:58.168Z,994.46
2018-03-08T06:20:58.159Z,994.44
2018-03-08T06:21:58.146Z,994.46
2018-03-08T06:22:58.134Z,994.44
2018-03-08T06:23:58.125Z,994.51
2018-03-08T06:24:58.114Z,994.46
2018-03-08T06:25:58.104Z,994.47
2018-03-08T06:26:58.090Z,994.53
2018-03-08T06:27:58.081Z,994.51
2018-03-08T06:28:58.076Z,994.54
2018-03-08T06:29:58.068Z,994.51
2018-03-08T06:30:58.071Z,994.61
2018-03-08T06:31:58.041Z,994.60
2018-03-08T06:32:58.029Z,994.57
2018-03-08T06:33:58.018Z,994.56
2018-03-08T06:34:58.029Z,994.59
2018-03-08T06:35:58.012Z,994.55
2018-03-08T06:36:58.010Z,994.55
2018-03-08T06:37:57.980Z,994.58
2018-03-08T06:38:58.020Z,994.60
2018-03-08T06:39:57.958Z,994.60
2018-03-08T06:40:57.950Z,994.56
2018-03-08T06:41:57.950Z,994.58
2018-03-08T06:42:57.932Z,994.55
2018-03-08T06:43:57.923Z,994.47
2018-03-08T06:44:57.910Z,994.51
2018-03-08T06:45:57.898Z,994.49
2018-03-08T06:46:57.885Z,994.42
2018-03-08T06:47:57.900Z,994.46
2018-03-08T06:48:57.870Z,994.46
2018-03-08T06:49:57.865Z,994.49
2018-03-08T06:50:57.851Z,994.46
2018-03-08T06:51:57.846Z,994.48
2018-03-08T06:52:57.841Z,994.53
2018-03-08T06:53:57.930Z,994.56
2018-03-08T06:54:57.859Z,994.57
2018-03-08T06:55:57.811Z,994.56
2018-03-08T06:56:57.783Z,994.57
2018-03-08T06:57:57.796Z,994.60
2018-03-08T06:58:57.761Z,994.62
2018-03-08T06:59:57.771Z,994.58
2018-03-08T07:00:57.745Z,994.63
2018-03-08T07:01:57.736Z,994.65
2018-03-08T07:02:57.734Z,994.70
2018-03-08T07:03:57.735Z,994.70
2018-03-08T07:04:57.712Z,994.73
2018-03-08T07:05:57.700Z,994.76
2018-03-08T07:06:57.684Z,994.74
2018-03-08T07:07:57.713Z,994.74
2018-03-08T07:08:57.672Z,994.77
2018-03-08T07:09:57.661Z,994.75
2018-03-08T07:10:57.648Z,994.76
2018-03-08T07:11:57.641Z,994.75
2018-03-08T07:12:57.627Z,994.78
2018-03-08T07:13:57.614Z,994.76
2018-03-08T07:14:57.610Z,994.76
2018-03-08T07:15:57.606Z,994.72
2018-03-08T07:16:57.583Z,994.76
2018-03-08T07:17:57.574Z,994.70
2018-03-08T07:18:57.570Z,994.75
2018-03-08T07:19:57.552Z,994.69
2018-03-08T07:20:57.542Z,994.71
2018-03-08T07:21:57.545Z,994.73
2018-03-08T07:22:57.523Z,994.70
2018-03-08T07:23:57.531Z,994.75
2018-03-08T07:24:57.522Z,994.74
2018-03-08T07:25:57.496Z,994.75
2018-03-08T07:26:57.489Z,994.73
2018-03-08T07:27:57.476Z,994.79
2018-03-08T07:28:57.466Z,994.72
2018-03-08T07:29:57.457Z,994.75
2018-03-08T07:30:57.452Z,994.74
2018-03-08T07:31:57.435Z,994.75
2018-03-08T07:32:57.426Z,994.78
2018-03-08T07:33:57.418Z,994.78
2018-03-08T07:34:57.406Z,994.70
2018-03-08T07:35:57.399Z,994.75
2018-03-08T07:36:57.389Z,994.71
2018-03-08T07:37:57.377Z,994.70
2018-03-08T07:38:57.369Z,994.71
2018-03-08T07:39:57.381Z,994.69
2018-03-08T07:40:57.345Z,994.71
2018-03-08T07:41:57.336Z,994.69
2018-03-08T07:42:57.329Z,994.72
2018-03-08T07:43:57.319Z,994.72
2018-03-08T07:44:57.328Z,994.74
2018-03-08T07:45:57.299Z,994.72
2018-03-08T07:46:57.289Z,994.79
2018-03-08T07:47:57.281Z,994.68
2018-03-08T07:48:57.274Z,994.70
2018-03-08T07:49:57.260Z,994.71
2018-03-08T07:50:57.252Z,994.51
2018-03-08T07:51:57.241Z,994.72
2018-03-08T07:52:57.240Z,994.71
2018-03-08T07:53:57.224Z,994.72
2018-03-08T07:54:57.210Z,994.75
2018-03-08T07:55:57.205Z,994.66
2018-03-08T07:56:57.192Z,994.64
2018-03-08T07:57:57.184Z,994.67
2018-03-08T07:58:57.187Z,994.64
2018-03-08T07:59:57.164Z,994.64
2018-03-08T08:00:57.157Z,994.66
2018-03-08T08:01:57.143Z,994.71
2018-03-08T08:02:57.133Z,994.65
2018-03-08T08:03:57.132Z,994.64
2018-03-08T08:04:57.121Z,994.71
2018-03-08T08:05:57.101Z,994.70
2018-03-08T08:06:57.107Z,994.64
2018-03-08T08:07:57.083Z,994.69
2018-03-08T08:08:57.079Z,994.62
2018-03-08T08:09:57.108Z,994.60
2018-03-08T08:10:57.058Z,994.70
2018-03-08T08:11:57.051Z,994.55
2018-03-08T08:12:57.039Z,994.56
2018-03-08T08:13:57.033Z,994.55
2018-03-08T08:14:57.020Z,994.53
2018-03-08T08:15:57.030Z,994.52
2018-03-08T08:16:57.000Z,994.53
2018-03-08T08:17:56.993Z,994.61
2018-03-08T08:18:56.978Z,994.57
2018-03-08T08:19:56.981Z,994.48
2018-03-08T08:20:57.017Z,994.49
2018-03-08T08:21:56.983Z,994.52
2018-03-08T08:22:56.947Z,994.48
2018-03-08T08:23:56.932Z,994.48
2018-03-08T08:24:56.923Z,994.43
2018-03-08T08:25:56.920Z,994.44
2018-03-08T08:26:56.924Z,994.44
2018-03-08T08:27:56.903Z,994.47
2018-03-08T08:28:56.889Z,994.44
2018-03-08T08:29:56.881Z,994.57
2018-03-08T08:30:56.876Z,994.48
2018-03-08T08:31:56.857Z,994.52
2018-03-08T08:32:56.866Z,994.55
2018-03-08T08:33:56.862Z,994.47
2018-03-08T08:34:56.834Z,994.44
2018-03-08T08:35:56.840Z,994.45
2018-03-08T08:36:56.815Z,994.38
2018-03-08T08:37:56.802Z,994.37
2018-03-08T08:38:56.821Z,994.45
2018-03-08T08:39:56.803Z,994.47
2018-03-08T08:40:56.779Z,994.60
2018-03-08T08:41:56.768Z,994.52
2018-03-08T08:42:56.765Z,994.41
2018-03-08T08:43:56.751Z,994.42
2018-03-08T08:44:56.749Z,994.43
2018-03-08T08:45:56.744Z,994.41
2018-03-08T08:46:56.732Z,994.36
2018-03-08T08:47:56.720Z,994.27
2018-03-08T08:48:56.715Z,994.39
2018-03-08T08:49:56.703Z,994.37
2018-03-08T08:50:56.691Z,994.36
2018-03-08T08:51:56.687Z,994.35
2018-03-08T08:52:56.683Z,994.44
2018-03-08T08:53:56.662Z,994.29
2018-03-08T08:54:56.660Z,994.34
2018-03-08T08:55:56.657Z,994.37
2018-03-08T08:56:56.643Z,994.43
2018-03-08T08:57:56.631Z,994.36
2018-03-08T08:58:56.623Z,994.52
2018-03-08T08:59:56.624Z,994.33
2018-03-08T09:00:56.616Z,994.39
2018-03-08T09:01:56.599Z,994.32
2018-03-08T09:02:56.594Z,994.34
2018-03-08T09:03:56.589Z,994.38
2018-03-08T09:04:56.580Z,994.39
2018-03-08T09:05:56.591Z,994.27
2018-03-08T09:06:56.570Z,994.32
2018-03-08T09:07:56.559Z,994.29
2018-03-08T09:08:56.554Z,994.24
2018-03-08T09:09:56.552Z,994.27
2018-03-08T09:10:56.546Z,994.26
2018-03-08T09:11:56.539Z,994.28
2018-03-08T09:12:56.533Z,994.34
2018-03-08T09:13:56.536Z,994.31
2018-03-08T09:14:56.545Z,994.30
2018-03-08T09:15:56.536Z,994.38
2018-03-08T09:16:56.519Z,994.27
2018-03-08T09:17:56.509Z,994.36
2018-03-08T09:18:56.505Z,994.30
2018-03-08T09:19:56.499Z,994.26
2018-03-08T09:20:56.497Z,994.25
2018-03-08T09:21:56.506Z,994.16
2018-03-08T09:22:56.500Z,994.31
2018-03-08T09:23:56.493Z,994.21
2018-03-08T09:24:56.482Z,994.05
2018-03-08T09:25:56.488Z,994.07
2018-03-08T09:26:56.481Z,994.09
2018-03-08T09:27:56.502Z,994.15
2018-03-08T09:28:56.476Z,994.27
2018-03-08T09:29:56.473Z,994.01
2018-03-08T09:30:56.469Z,994.06
2018-03-08T09:31:56.468Z,994.17
2018-03-08T09:32:56.468Z,993.92
2018-03-08T09:33:56.518Z,993.93
2018-03-08T09:34:56.461Z,993.95
2018-03-08T09:35:56.463Z,994.03
2018-03-08T09:36:56.463Z,993.97
2018-03-08T09:37:56.460Z,994.04
2018-03-08T09:38:56.461Z,993.94
2018-03-08T09:39:56.456Z,994.02
2018-03-08T09:40:56.457Z,994.03
2018-03-08T09:41:56.454Z,993.95
2018-03-08T09:42:56.453Z,993.93
2018-03-08T09:43:56.452Z,993.98
2018-03-08T09:44:56.451Z,993.99
2018-03-08T09:45:56.451Z,994.01
2018-03-08T09:46:56.445Z,993.97
2018-03-08T09:47:56.440Z,993.99
2018-03-08T09:48:56.442Z,994.06
2018-03-08T09:49:56.450Z,994.04
2018-03-08T09:50:56.439Z,993.97
2018-03-08T09:51:56.437Z,993.92
2018-03-08T09:52:56.434Z,993.96
2018-03-08T09:53:56.433Z,993.96
2018-03-08T09:54:56.424Z,993.84
2018-03-08T09:55:56.441Z,993.86
2018-03-08T09:56:56.427Z,993.76
2018-03-08T09:57:56.449Z,993.89
2018-03-08T09:58:56.431Z,993.87
2018-03-08T09:59:56.422Z,993.79
2018-03-08T10:00:56.416Z,993.73
2018-03-08T10:01:56.413Z,993.85
2018-03-08T10:02:56.423Z,993.70
2018-03-08T10:03:56.409Z,993.72
2018-03-08T10:04:56.412Z,993.75
2018-03-08T10:05:56.397Z,993.81
2018-03-08T10:06:56.402Z,993.65
2018-03-08T10:07:56.392Z,993.62
2018-03-08T10:08:56.390Z,993.75
2018-03-08T10:09:56.395Z,993.76
2018-03-08T10:10:56.405Z,993.62
2018-03-08T10:11:56.397Z,993.87
2018-03-08T10:12:56.387Z,993.70
2018-03-08T10:13:56.374Z,993.56
2018-03-08T10:14:56.368Z,993.59
2018-03-08T10:15:56.365Z,993.66
2018-03-08T10:16:56.365Z,993.63
2018-03-08T10:17:56.362Z,993.67
2018-03-08T10:18:56.353Z,993.57
2018-03-08T10:19:56.348Z,993.50
2018-03-08T10:20:56.344Z,993.47
2018-03-08T10:21:56.347Z,993.39
2018-03-08T10:22:56.334Z,993.44
2018-03-08T10:23:56.327Z,993.47
2018-03-08T10:24:56.327Z,993.54
2018-03-08T10:25:56.334Z,993.50
2018-03-08T10:26:56.310Z,993.37
2018-03-08T10:27:56.301Z,993.45
2018-03-08T10:28:56.303Z,993.51
2018-03-08T10:29:56.302Z,993.35
2018-03-08T10:30:56.280Z,993.43
2018-03-08T10:31:56.285Z,993.33
2018-03-08T10:32:56.270Z,993.35
2018-03-08T10:33:56.265Z,993.41
2018-03-08T10:34:56.255Z,993.30
2018-03-08T10:35:56.252Z,993.31
2018-03-08T10:36:56.240Z,993.25
2018-03-08T10:37:56.237Z,993.26
2018-03-08T10:38:56.230Z,993.22
2018-03-08T10:39:56.231Z,993.25
2018-03-08T10:40:56.258Z,993.34
2018-03-08T10:41:56.212Z,993.22
2018-03-08T10:42:56.201Z,993.26
2018-03-08T10:43:56.198Z,993.25
2018-03-08T10:44:56.186Z,993.34
2018-03-08T10:45:56.198Z,993.23
2018-03-08T10:46:56.185Z,993.19
2018-03-08T10:47:56.172Z,993.20
2018-03-08T10:49:56.161Z,993.20
2018-03-08T10:50:56.152Z,993.17
2018-03-08T10:51:56.154Z,993.15
2018-03-08T10:52:56.143Z,993.20
2018-03-08T10:53:56.145Z,993.19
2018-03-08T10:54:56.150Z,993.19
2018-03-08T10:55:56.118Z,993.16
2018-03-08T10:56:56.116Z,993.22
2018-03-08T10:57:56.108Z,993.22
2018-03-08T10:58:56.097Z,993.16
2018-03-08T10:59:56.094Z,993.31
2018-03-08T11:00:56.095Z,993.15
2018-03-08T11:01:56.083Z,993.17
2018-03-08T11:02:56.072Z,993.21
2018-03-08T11:03:56.069Z,993.22
2018-03-08T11:04:56.065Z,993.26
2018-03-08T11:05:56.051Z,993.26
2018-03-08T11:06:56.045Z,993.19
2018-03-08T11:07:56.074Z,993.10
2018-03-08T11:08:56.044Z,993.29
2018-03-08T11:09:56.021Z,993.36
2018-03-08T11:10:56.034Z,993.20
2018-03-08T11:11:56.011Z,993.23
2018-03-08T11:12:56.002Z,993.32
2018-03-08T11:13:55.993Z,993.24
2018-03-08T11:14:55.989Z,993.16
2018-03-08T11:15:55.987Z,993.21
2018-03-08T11:16:55.970Z,993.21
2018-03-08T11:17:55.965Z,993.26
2018-03-08T11:18:55.966Z,993.18
2018-03-08T11:19:55.958Z,993.20
2018-03-08T11:20:55.949Z,993.23
2018-03-08T11:21:55.934Z,993.22
2018-03-08T11:22:55.934Z,993.25
2018-03-08T11:23:55.923Z,993.18
2018-03-08T11:24:55.913Z,993.19
2018-03-08T11:25:55.904Z,993.34
2018-03-08T11:26:55.893Z,993.14
2018-03-08T11:27:55.888Z,993.27
2018-03-08T11:28:55.881Z,993.16
2018-03-08T11:29:55.878Z,993.16
2018-03-08T11:30:55.904Z,993.14
2018-03-08T11:31:55.858Z,993.09
2018-03-08T11:32:55.848Z,993.24
2018-03-08T11:33:55.845Z,993.13
2018-03-08T11:34:55.833Z,993.07
2018-03-08T11:35:55.835Z,993.23
2018-03-08T11:36:55.818Z,993.08
2018-03-08T11:37:55.807Z,993.04
2018-03-08T11:38:55.801Z,992.99
2018-03-08T11:39:55.799Z,993.05
2018-03-08T11:40:55.790Z,992.90
2018-03-08T11:41:55.780Z,992.89
2018-03-08T11:42:55.769Z,992.89
2018-03-08T11:43:55.768Z,992.84
2018-03-08T11:44:55.757Z,992.77
2018-03-08T11:45:55.744Z,992.80
2018-03-08T11:46:55.739Z,992.81
2018-03-08T11:47:55.736Z,992.86
2018-03-08T11:48:55.724Z,992.79
2018-03-08T11:49:56.667Z,992.76
2018-03-08T11:50:55.717Z,992.69
2018-03-08T11:51:55.702Z,992.73
2018-03-08T11:52:55.692Z,992.75
2018-03-08T11:53:56.477Z,992.73
2018-03-08T11:54:55.748Z,992.69
2018-03-08T11:55:55.661Z,992.57
2018-03-08T11:56:55.660Z,992.61
2018-03-08T11:57:55.654Z,992.60
2018-03-08T11:58:55.642Z,992.54
2018-03-08T11:59:55.633Z,992.58
2018-03-08T12:00:55.622Z,992.52
2018-03-08T12:01:55.620Z,992.60
2018-03-08T12:02:55.609Z,992.52
2018-03-08T12:03:55.597Z,992.56
2018-03-08T12:04:55.600Z,992.60
2018-03-08T12:05:55.600Z,992.59
2018-03-08T12:06:55.584Z,992.47
2018-03-08T12:07:55.588Z,992.42
2018-03-08T12:08:55.572Z,992.50
2018-03-08T12:09:55.558Z,992.45
2018-03-08T12:10:55.574Z,992.55
2018-03-08T12:11:55.591Z,992.46
2018-03-08T12:12:55.538Z,992.37
2018-03-08T12:13:55.527Z,992.39
2018-03-08T12:14:55.520Z,992.46
2018-03-08T12:15:55.522Z,992.40
2018-03-08T12:16:55.543Z,992.43
2018-03-08T12:17:55.530Z,992.35
2018-03-08T12:18:55.495Z,992.33
2018-03-08T12:19:55.493Z,992.41
2018-03-08T12:20:55.479Z,992.27
2018-03-08T12:21:55.469Z,992.27
2018-03-08T12:22:55.465Z,992.27
2018-03-08T12:23:55.564Z,992.17
2018-03-08T12:24:55.461Z,992.41
2018-03-08T12:25:55.438Z,992.29
2018-03-08T12:26:55.440Z,992.30
2018-03-08T12:27:55.426Z,992.26
2018-03-08T12:28:55.420Z,992.19
2018-03-08T12:29:55.409Z,992.22
2018-03-08T12:30:55.407Z,992.16